createdAt,value
2023-04-23T00:02:03.207Z,6.18
2023-04-23T00:04:34.535Z,7.93
2023-04-23T00:07:03.446Z,8.32
2023-04-23T00:09:34.767Z,5.85
2023-04-23T00:12:04.608Z,5.05
2023-04-23T00:14:31.488Z,8.82
2023-04-23T00:16:58.273Z,5.20
2023-04-23T00:19:25.007Z,5.40
2023-04-23T00:21:52.197Z,5.18
2023-04-23T00:24:20.167Z,5.65
2023-04-23T00:26:47.259Z,5.40
2023-04-23T00:29:13.926Z,5.15
2023-04-23T00:31:40.700Z,5.43
2023-04-23T00:34:07.690Z,5.95
2023-04-23T00:36:34.323Z,5.63
2023-04-23T00:39:01.011Z,6.60
2023-04-23T00:41:28.387Z,8.48
2023-04-23T00:43:57.348Z,5.30
2023-04-23T00:46:26.749Z,7.25
2023-04-23T00:48:54.349Z,5.72
2023-04-23T00:51:24.555Z,5.10
2023-04-23T00:53:51.793Z,7.03
2023-04-23T00:56:18.680Z,7.13
2023-04-23T00:58:46.139Z,5.88
2023-04-23T01:01:13.981Z,6.15
2023-04-23T01:03:43.015Z,7.25
2023-04-23T01:06:09.911Z,7.97
2023-04-23T01:08:36.984Z,7.07
2023-04-23T01:11:04.454Z,6.97
2023-04-23T01:13:31.224Z,9.38
2023-04-23T01:15:58.359Z,6.70
2023-04-23T01:18:25.180Z,5.90
2023-04-23T01:20:52.026Z,5.82
2023-04-23T01:23:19.130Z,7.70
2023-04-23T01:25:46.328Z,6.43
2023-04-23T01:28:13.205Z,8.80
2023-04-23T01:30:42.922Z,7.05
2023-04-23T01:33:10.533Z,8.55
2023-04-23T01:35:37.574Z,6.85
2023-04-23T01:38:06.009Z,5.25
2023-04-23T01:40:32.704Z,6.43
2023-04-23T01:43:00.225Z,5.13
2023-04-23T01:45:27.087Z,5.68
2023-04-23T01:47:54.533Z,6.70
2023-04-23T01:50:24.424Z,6.28
2023-04-23T01:52:51.210Z,5.97
2023-04-23T01:55:19.307Z,4.88
2023-04-23T01:57:47.060Z,6.60
2023-04-23T02:00:15.343Z,4.80
2023-04-23T02:02:44.387Z,6.38
2023-04-23T02:05:14.232Z,4.93
2023-04-23T02:07:41.269Z,6.63
2023-04-23T02:10:08.649Z,6.78
2023-04-23T02:12:37.069Z,5.78
2023-04-23T02:15:05.267Z,6.40
2023-04-23T02:17:32.073Z,6.40
2023-04-23T02:19:59.036Z,5.82
2023-04-23T02:22:26.662Z,7.45
2023-04-23T02:24:54.432Z,6.88
2023-04-23T02:27:22.161Z,6.10
2023-04-23T02:29:49.539Z,5.38
2023-04-23T02:32:16.459Z,5.75
2023-04-23T02:34:43.518Z,7.57
2023-04-23T02:37:10.982Z,8.45
2023-04-23T02:39:39.303Z,7.97
2023-04-23T02:42:06.772Z,6.68
2023-04-23T02:44:33.606Z,6.00
2023-04-23T02:47:01.041Z,5.82
2023-04-23T02:49:27.915Z,5.82
2023-04-23T02:51:54.692Z,7.65
2023-04-23T02:54:21.405Z,6.88
2023-04-23T02:56:49.342Z,6.60
2023-04-23T02:59:16.110Z,7.68
2023-04-23T03:01:42.927Z,7.72
2023-04-23T03:04:09.865Z,7.57
2023-04-23T03:06:37.407Z,8.25
2023-04-23T03:09:04.885Z,7.63
2023-04-23T03:11:31.894Z,7.82
2023-04-23T03:13:58.612Z,9.00
2023-04-23T03:16:29.502Z,12.07
2023-04-23T03:18:56.606Z,10.90
2023-04-23T03:21:23.312Z,8.27
2023-04-23T03:23:50.047Z,10.07
2023-04-23T03:26:16.870Z,8.48
2023-04-23T03:28:43.589Z,8.60
2023-04-23T03:31:10.879Z,7.95
2023-04-23T03:33:37.680Z,10.30
2023-04-23T03:36:05.634Z,9.80
2023-04-23T03:38:32.390Z,10.55
2023-04-23T03:40:59.313Z,8.55
2023-04-23T03:43:26.052Z,9.15
2023-04-23T03:45:52.784Z,9.10
2023-04-23T03:48:20.769Z,11.05
2023-04-23T03:50:47.685Z,9.75
2023-04-23T03:53:14.441Z,10.98
2023-04-23T03:55:41.170Z,9.52
2023-04-23T03:58:09.230Z,10.23
2023-04-23T04:00:36.425Z,10.27
2023-04-23T04:03:04.283Z,10.00
2023-04-23T04:05:31.275Z,11.18
2023-04-23T04:07:57.988Z,10.75
2023-04-23T04:10:24.946Z,9.23
2023-04-23T04:12:51.992Z,12.02
2023-04-23T04:15:20.746Z,10.80
2023-04-23T04:17:47.982Z,12.02
2023-04-23T04:20:14.790Z,9.57
2023-04-23T04:22:41.592Z,9.68
2023-04-23T04:25:08.699Z,9.90
2023-04-23T04:27:35.919Z,9.93
2023-04-23T04:30:03.077Z,12.88
2023-04-23T04:32:29.839Z,10.88
2023-04-23T04:34:56.898Z,10.57
2023-04-23T04:37:23.976Z,10.60
2023-04-23T04:39:51.219Z,14.93
2023-04-23T04:42:17.911Z,11.27
2023-04-23T04:44:44.627Z,10.35
2023-04-23T04:47:13.419Z,14.32
2023-04-23T04:49:40.338Z,10.90
2023-04-23T04:52:07.342Z,10.43
2023-04-23T04:54:34.091Z,11.43
2023-04-23T04:57:02.392Z,11.48
2023-04-23T04:59:29.093Z,10.70
2023-04-23T05:01:56.535Z,14.20
2023-04-23T05:04:23.293Z,10.75
2023-04-23T05:06:50.134Z,14.82
2023-04-23T05:09:17.220Z,11.50
2023-04-23T05:11:44.025Z,14.77
2023-04-23T05:14:10.877Z,11.00
2023-04-23T05:16:37.668Z,14.20
2023-04-23T05:19:04.427Z,12.65
2023-04-23T05:21:31.662Z,12.43
2023-04-23T05:23:58.365Z,13.68
2023-04-23T05:26:25.119Z,14.68
2023-04-23T05:28:51.888Z,11.57
2023-04-23T05:31:18.701Z,13.70
2023-04-23T05:33:50.499Z,11.02
2023-04-23T05:36:18.472Z,12.63
2023-04-23T05:38:45.228Z,12.88
2023-04-23T05:41:12.160Z,11.73
2023-04-23T05:43:39.007Z,13.20
2023-04-23T05:46:07.705Z,15.07
2023-04-23T05:48:34.784Z,13.60
2023-04-23T05:51:01.744Z,13.35
2023-04-23T05:53:28.855Z,17.77
2023-04-23T05:55:56.102Z,15.77
2023-04-23T05:58:23.321Z,12.82
2023-04-23T06:00:50.288Z,15.23
2023-04-23T06:03:17.365Z,11.75
2023-04-23T06:05:44.464Z,12.10
2023-04-23T06:08:11.434Z,13.45
2023-04-23T06:10:38.171Z,9.18
2023-04-23T06:13:04.961Z,9.98
2023-04-23T06:15:31.765Z,9.90
2023-04-23T06:17:59.055Z,8.57
2023-04-23T06:20:26.148Z,9.45
2023-04-23T06:22:53.151Z,9.93
2023-04-23T06:25:20.053Z,10.70
2023-04-23T06:27:46.785Z,9.77
2023-04-23T06:30:13.735Z,9.77
2023-04-23T06:32:40.567Z,12.23
2023-04-23T06:35:08.500Z,10.80
2023-04-23T06:37:35.626Z,10.75
2023-04-23T06:40:02.333Z,10.18
2023-04-23T06:42:29.049Z,10.18
2023-04-23T06:44:57.045Z,14.88
2023-04-23T06:47:23.787Z,11.65
2023-04-23T06:49:52.262Z,9.52
2023-04-23T06:52:18.969Z,10.80
2023-04-23T06:54:45.723Z,8.05
2023-04-23T06:57:12.508Z,11.45
2023-04-23T06:59:39.253Z,9.40
2023-04-23T07:02:06.561Z,14.55
2023-04-23T07:04:33.580Z,8.40
2023-04-23T07:07:00.408Z,9.32
2023-04-23T07:09:28.669Z,7.53
2023-04-23T07:11:55.697Z,6.97
2023-04-23T07:14:22.699Z,6.88
2023-04-23T07:16:49.428Z,9.02
2023-04-23T07:19:16.249Z,6.88
2023-04-23T07:21:42.967Z,7.60
2023-04-23T07:24:09.674Z,5.82
2023-04-23T07:26:36.878Z,7.30
2023-04-23T07:29:05.324Z,6.43
2023-04-23T07:31:32.133Z,6.40
2023-04-23T07:33:58.905Z,5.95
2023-04-23T07:36:25.933Z,6.10
2023-04-23T07:38:52.730Z,5.82
2023-04-23T07:41:19.549Z,5.72
2023-04-23T07:43:46.530Z,8.10
2023-04-23T07:46:13.290Z,5.55
2023-04-23T07:48:40.144Z,5.07
2023-04-23T07:51:06.974Z,4.07
2023-04-23T07:53:34.388Z,4.18
2023-04-23T07:56:01.520Z,6.50
2023-04-23T07:58:28.302Z,4.82
2023-04-23T08:00:55.159Z,5.68
2023-04-23T08:03:22.843Z,5.82
2023-04-23T08:05:49.882Z,6.65
2023-04-23T08:08:16.731Z,4.20
2023-04-23T08:10:43.592Z,4.18
2023-04-23T08:13:11.126Z,5.00
2023-04-23T08:15:38.036Z,3.63
2023-04-23T08:18:05.399Z,5.60
2023-04-23T08:20:32.569Z,4.40
2023-04-23T08:22:59.540Z,3.42
2023-04-23T08:25:26.456Z,3.95
2023-04-23T08:27:53.225Z,2.97
2023-04-23T08:30:20.221Z,4.00
2023-04-23T08:32:50.899Z,6.95
2023-04-23T08:35:17.920Z,3.72
2023-04-23T08:37:44.750Z,3.53
2023-04-23T08:40:11.980Z,2.95
2023-04-23T08:42:43.654Z,2.90
2023-04-23T08:45:11.361Z,3.85
2023-04-23T08:47:43.185Z,3.30
2023-04-23T08:50:17.808Z,2.25
2023-04-23T08:52:52.552Z,2.70
2023-04-23T08:55:20.612Z,4.15
2023-04-23T08:57:47.983Z,3.33
2023-04-23T09:00:16.668Z,2.10
2023-04-23T09:02:45.546Z,2.88
2023-04-23T09:05:13.161Z,2.25
2023-04-23T09:07:40.452Z,3.15
2023-04-23T09:10:09.173Z,2.75
2023-04-23T09:12:36.475Z,5.03
2023-04-23T09:15:10.873Z,2.67
2023-04-23T09:20:09.868Z,2.05
2023-04-23T09:22:47.952Z,1.90
2023-04-23T09:25:20.957Z,2.13
2023-04-23T09:27:50.244Z,2.30
2023-04-23T09:30:17.798Z,2.78
2023-04-23T09:32:46.333Z,1.30
2023-04-23T09:35:15.530Z,1.40
2023-04-23T09:37:45.034Z,1.80
2023-04-23T09:40:14.607Z,1.63
2023-04-23T09:42:41.478Z,1.00
2023-04-23T09:45:11.752Z,1.48
2023-04-23T09:47:40.017Z,2.17
2023-04-23T09:50:10.567Z,1.20
2023-04-23T09:52:41.160Z,3.50
2023-04-23T09:55:08.629Z,1.77
2023-04-23T09:57:42.041Z,3.95
2023-04-23T10:00:20.027Z,2.05
2023-04-23T10:02:51.219Z,2.00
2023-04-23T10:05:27.224Z,2.53
2023-04-23T10:07:59.795Z,2.20
2023-04-23T10:10:26.737Z,2.33
2023-04-23T10:12:57.354Z,1.95
2023-04-23T10:15:26.893Z,2.70
2023-04-23T10:17:54.762Z,3.72
2023-04-23T10:20:23.223Z,2.92
2023-04-23T10:22:52.719Z,3.38
2023-04-23T10:25:21.365Z,3.30
2023-04-23T10:27:54.468Z,4.13
2023-04-23T10:30:22.630Z,3.03
2023-04-23T10:32:49.916Z,2.53
2023-04-23T10:35:16.815Z,3.55
2023-04-23T10:37:46.393Z,2.05
2023-04-23T10:40:15.338Z,6.55
2023-04-23T10:42:44.246Z,2.15
2023-04-23T10:45:24.079Z,2.65
2023-04-23T10:47:54.089Z,2.47
2023-04-23T10:50:24.019Z,2.13
2023-04-23T10:52:54.472Z,3.65
2023-04-23T10:55:27.265Z,2.92
2023-04-23T10:58:08.207Z,2.72
2023-04-23T11:00:41.231Z,2.53
2023-04-23T11:03:38.778Z,2.95
2023-04-23T11:06:08.851Z,3.85
2023-04-23T11:08:36.249Z,2.28
2023-04-23T11:11:08.107Z,2.33
2023-04-23T11:13:34.977Z,1.77
2023-04-23T11:16:15.060Z,2.92
2023-04-23T11:19:08.148Z,2.85
2023-04-23T11:21:58.670Z,3.75
2023-04-23T11:24:29.232Z,2.90
2023-04-23T11:26:56.479Z,2.65
2023-04-23T11:29:25.081Z,4.63
2023-04-23T11:34:22.724Z,2.10
2023-04-23T11:36:52.929Z,3.22
2023-04-23T11:39:24.215Z,2.40
2023-04-23T11:41:52.357Z,3.63
2023-04-23T11:44:21.381Z,4.20
2023-04-23T11:46:49.606Z,3.75
2023-04-23T11:49:18.636Z,5.80
2023-04-23T11:51:46.480Z,1.98
2023-04-23T11:54:14.826Z,4.63
2023-04-23T11:56:42.335Z,1.80
2023-04-23T11:59:09.650Z,14.90
2023-04-23T12:01:41.520Z,3.28
2023-04-23T12:04:22.795Z,2.40
2023-04-23T12:06:51.003Z,2.22
2023-04-23T12:09:20.030Z,5.72
2023-04-23T12:11:47.302Z,1.92
2023-04-23T12:14:15.324Z,3.75
2023-04-23T12:16:44.182Z,1.75
2023-04-23T12:19:15.079Z,1.75
2023-04-23T12:22:01.424Z,1.20
2023-04-23T12:24:31.147Z,2.45
2023-04-23T12:27:01.031Z,2.03
2023-04-23T12:29:30.726Z,2.05
2023-04-23T12:31:59.969Z,1.95
2023-04-23T12:34:26.820Z,2.35
2023-04-23T12:36:56.260Z,2.00
2023-04-23T12:39:30.260Z,2.35
2023-04-23T12:42:04.921Z,3.67
2023-04-23T12:44:34.581Z,2.45
2023-04-23T12:47:07.469Z,1.58
2023-04-23T12:49:35.790Z,2.05
2023-04-23T12:52:03.814Z,2.53
2023-04-23T12:54:39.301Z,2.22
2023-04-23T12:57:12.503Z,4.07
2023-04-23T12:59:39.344Z,2.13
2023-04-23T13:02:07.432Z,1.38
2023-04-23T13:04:35.805Z,2.30
2023-04-23T13:07:03.171Z,1.67
2023-04-23T13:09:30.253Z,2.78
2023-04-23T13:11:57.250Z,2.45
2023-04-23T13:14:23.967Z,1.92
2023-04-23T13:16:51.050Z,1.63
2023-04-23T13:19:18.006Z,2.05
2023-04-23T13:21:45.398Z,1.80
2023-04-23T13:24:12.255Z,1.88
2023-04-23T13:26:39.021Z,1.70
2023-04-23T13:29:06.251Z,2.45
2023-04-23T13:31:33.817Z,3.40
2023-04-23T13:34:02.860Z,3.58
2023-04-23T13:36:29.961Z,5.88
2023-04-23T13:38:56.774Z,2.63
2023-04-23T13:41:23.614Z,13.70
2023-04-23T13:43:50.479Z,11.23
2023-04-23T13:46:17.468Z,1.98
2023-04-23T13:48:44.241Z,1.38
2023-04-23T13:51:25.372Z,3.05
2023-04-23T13:53:59.174Z,1.80
2023-04-23T13:56:27.372Z,2.90
2023-04-23T13:59:02.115Z,1.77
2023-04-23T14:01:35.274Z,9.73
2023-04-23T14:04:04.434Z,3.90
2023-04-23T14:06:31.572Z,4.70
2023-04-23T14:08:58.377Z,3.72
2023-04-23T14:11:25.125Z,6.18
2023-04-23T14:13:51.993Z,3.13
2023-04-23T14:16:18.820Z,4.65
2023-04-23T14:18:45.808Z,2.45
2023-04-23T14:21:14.918Z,3.05
2023-04-23T14:24:00.929Z,1.77
2023-04-23T14:29:50.702Z,1.50
2023-04-23T14:32:17.429Z,4.57
2023-04-23T14:34:44.682Z,1.98
2023-04-23T14:37:11.487Z,2.63
2023-04-23T14:39:38.300Z,3.60
2023-04-23T14:42:05.319Z,3.55
2023-04-23T14:44:32.067Z,1.35
2023-04-23T14:46:59.388Z,2.20
2023-04-23T14:49:26.278Z,3.10
2023-04-23T14:51:58.059Z,2.60
2023-04-23T14:54:25.219Z,3.65
2023-04-23T14:56:51.957Z,2.00
2023-04-23T14:59:18.730Z,2.55
2023-04-23T15:01:45.738Z,2.53
2023-04-23T15:04:12.937Z,2.83
2023-04-23T15:06:42.497Z,2.03
2023-04-23T15:09:09.231Z,2.20
2023-04-23T15:11:38.717Z,2.63
2023-04-23T15:14:05.597Z,3.38
2023-04-23T15:19:12.142Z,2.65
2023-04-23T15:21:39.272Z,1.95
2023-04-23T15:24:07.784Z,2.78
2023-04-23T15:26:34.757Z,1.83
2023-04-23T15:29:01.711Z,2.97
2023-04-23T15:31:28.484Z,3.83
2023-04-23T15:33:55.306Z,2.03
2023-04-23T15:36:22.297Z,2.03
2023-04-23T15:38:48.987Z,3.28
2023-04-23T15:41:15.740Z,3.40
2023-04-23T15:43:42.462Z,2.67
2023-04-23T15:46:09.249Z,5.80
2023-04-23T15:48:36.051Z,2.50
2023-04-23T15:51:02.812Z,2.65
2023-04-23T15:53:29.816Z,3.10
2023-04-23T15:55:56.774Z,2.03
2023-04-23T15:58:23.475Z,5.53
2023-04-23T16:00:50.416Z,2.17
2023-04-23T16:03:17.332Z,2.55
2023-04-23T16:05:44.933Z,3.65
2023-04-23T16:08:11.954Z,2.83
2023-04-23T16:10:39.089Z,4.20
2023-04-23T16:13:06.567Z,4.40
2023-04-23T16:15:33.517Z,1.70
2023-04-23T16:18:00.631Z,1.83
2023-04-23T16:20:28.539Z,4.10
2023-04-23T16:22:55.681Z,3.78
2023-04-23T16:25:22.493Z,5.40
2023-04-23T16:27:49.568Z,2.92
2023-04-23T16:30:16.985Z,3.72
2023-04-23T16:32:43.960Z,2.33
2023-04-23T16:35:10.860Z,3.78
2023-04-23T16:37:37.860Z,2.45
2023-04-23T16:40:05.939Z,2.13
2023-04-23T16:42:32.864Z,1.85
2023-04-23T16:44:59.776Z,2.75
2023-04-23T16:47:27.014Z,3.20
2023-04-23T16:49:53.866Z,4.85
2023-04-23T16:52:20.596Z,2.83
2023-04-23T16:54:49.370Z,1.38
2023-04-23T16:57:17.215Z,1.90
2023-04-23T16:59:44.113Z,2.70
2023-04-23T17:02:11.063Z,2.20
2023-04-23T17:04:38.100Z,2.90
2023-04-23T17:07:05.462Z,2.13
2023-04-23T17:09:32.500Z,4.55
2023-04-23T17:11:59.420Z,5.15
2023-04-23T17:14:26.763Z,2.10
2023-04-23T17:16:53.518Z,4.65
2023-04-23T17:19:20.273Z,4.45
2023-04-23T17:21:47.056Z,3.17
2023-04-23T17:24:14.004Z,3.35
2023-04-23T17:26:40.999Z,1.00
2023-04-23T17:29:07.774Z,1.55
2023-04-23T17:31:36.078Z,1.67
2023-04-23T17:34:04.386Z,2.55
2023-04-23T17:36:31.166Z,3.78
2023-04-23T17:38:57.924Z,1.65
2023-04-23T17:41:24.952Z,2.03
2023-04-23T17:43:51.701Z,3.30
2023-04-23T17:46:18.510Z,3.80
2023-04-23T17:48:45.504Z,3.00
2023-04-23T17:51:12.321Z,6.72
2023-04-23T17:53:39.197Z,3.70
2023-04-23T17:56:06.202Z,3.03
2023-04-23T17:58:33.140Z,3.47
2023-04-23T18:01:00.281Z,3.88
2023-04-23T18:03:27.958Z,6.25
2023-04-23T18:05:55.088Z,3.33
2023-04-23T18:08:21.888Z,2.22
2023-04-23T18:10:49.159Z,4.45
2023-04-23T18:13:16.205Z,5.13
2023-04-23T18:15:42.876Z,4.55
2023-04-23T18:18:09.754Z,5.13
2023-04-23T18:20:38.852Z,2.13
2023-04-23T18:23:06.703Z,5.43
2023-04-23T18:25:33.591Z,3.90
2023-04-23T18:28:00.387Z,2.75
2023-04-23T18:30:27.268Z,1.83
2023-04-23T18:33:15.082Z,2.08
2023-04-23T18:35:45.321Z,3.63
2023-04-23T18:38:25.560Z,3.45
2023-04-23T18:40:52.331Z,1.38
2023-04-23T18:43:19.062Z,2.33
2023-04-23T18:45:45.874Z,4.90
2023-04-23T18:48:34.028Z,4.47
2023-04-23T18:51:05.963Z,3.20
2023-04-23T18:53:32.749Z,2.20
2023-04-23T18:55:59.463Z,2.33
2023-04-23T18:58:26.187Z,1.98
2023-04-23T19:00:52.920Z,3.47
2023-04-23T19:03:26.870Z,7.03
2023-04-23T19:05:54.625Z,5.47
2023-04-23T19:08:22.754Z,4.70
2023-04-23T19:10:49.526Z,5.47
2023-04-23T19:13:16.761Z,3.17
2023-04-23T19:15:43.510Z,2.45
2023-04-23T19:18:10.225Z,3.38
2023-04-23T19:20:37.435Z,2.70
2023-04-23T19:23:05.014Z,4.03
2023-04-23T19:25:32.123Z,6.65
2023-04-23T19:27:58.830Z,3.40
2023-04-23T19:30:25.533Z,1.65
2023-04-23T19:32:52.387Z,4.40
2023-04-23T19:35:19.417Z,2.53
2023-04-23T19:37:47.235Z,3.40
2023-04-23T19:40:14.849Z,2.60
2023-04-23T19:42:41.547Z,6.25
2023-04-23T19:45:08.770Z,2.53
2023-04-23T19:47:38.806Z,2.53
2023-04-23T19:50:09.830Z,2.72
2023-04-23T19:52:36.998Z,5.07
2023-04-23T19:55:04.009Z,5.15
2023-04-23T19:57:30.776Z,5.18
2023-04-23T19:59:57.449Z,6.50
2023-04-23T20:02:24.175Z,7.55
2023-04-23T20:04:50.970Z,9.93
2023-04-23T20:07:17.735Z,8.25
2023-04-23T20:09:44.764Z,7.65
2023-04-23T20:12:12.768Z,8.63
2023-04-23T20:14:39.638Z,6.47
2023-04-23T20:17:07.224Z,6.72
2023-04-23T20:19:34.080Z,6.50
2023-04-23T20:22:01.061Z,9.60
2023-04-23T20:24:27.758Z,10.40
2023-04-23T20:26:54.523Z,6.40
2023-04-23T20:29:21.318Z,6.15
2023-04-23T20:31:49.595Z,4.28
2023-04-23T20:34:16.981Z,6.07
2023-04-23T20:36:47.151Z,5.05
2023-04-23T20:39:14.418Z,6.20
2023-04-23T20:41:41.294Z,4.13
2023-04-23T20:44:09.143Z,4.95
2023-04-23T20:46:36.888Z,3.65
2023-04-23T20:49:04.197Z,4.50
2023-04-23T20:51:34.681Z,3.30
2023-04-23T20:54:02.452Z,3.33
2023-04-23T20:56:29.899Z,4.60
2023-04-23T20:59:00.072Z,4.35
2023-04-23T21:01:27.311Z,4.70
2023-04-23T21:03:54.465Z,3.05
2023-04-23T21:06:22.276Z,3.47
2023-04-23T21:08:49.301Z,5.57
2023-04-23T21:11:18.326Z,5.00
2023-04-23T21:13:48.298Z,4.53
2023-04-23T21:16:15.285Z,3.72
2023-04-23T21:18:43.887Z,3.30
2023-04-23T21:21:10.946Z,2.85
2023-04-23T21:23:37.701Z,4.30
2023-04-23T21:26:04.502Z,3.20
2023-04-23T21:28:32.099Z,2.90
2023-04-23T21:31:05.995Z,4.07
2023-04-23T21:33:32.684Z,3.25
2023-04-23T21:35:59.410Z,3.92
2023-04-23T21:38:26.117Z,4.93
2023-04-23T21:40:53.249Z,2.50
2023-04-23T21:43:19.997Z,2.25
2023-04-23T21:45:46.804Z,4.35
2023-04-23T21:48:13.590Z,4.32
2023-04-23T21:50:40.667Z,2.55
2023-04-23T21:53:07.377Z,2.05
2023-04-23T21:55:34.128Z,4.28
2023-04-23T21:58:15.900Z,2.60
2023-04-23T22:00:45.217Z,2.88
2023-04-23T22:03:13.349Z,2.38
2023-04-23T22:05:47.682Z,2.80
2023-04-23T22:08:16.524Z,3.50
2023-04-23T22:10:43.347Z,2.75
2023-04-23T22:13:11.324Z,2.78
2023-04-23T22:15:38.474Z,4.63
2023-04-23T22:18:05.548Z,4.50
2023-04-23T22:20:32.604Z,3.13
2023-04-23T22:22:59.447Z,4.32
2023-04-23T22:25:26.322Z,6.60
2023-04-23T22:27:53.256Z,3.25
2023-04-23T22:30:20.642Z,2.83
2023-04-23T22:32:47.483Z,4.13
2023-04-23T22:35:14.430Z,4.72
2023-04-23T22:37:41.610Z,5.03
2023-04-23T22:40:09.709Z,3.28
2023-04-23T22:42:37.369Z,3.92
2023-04-23T22:45:04.861Z,5.88
2023-04-23T22:47:32.179Z,5.50
2023-04-23T22:49:59.055Z,4.32
2023-04-23T22:52:27.075Z,5.00
2023-04-23T22:54:55.034Z,3.95
2023-04-23T22:57:21.850Z,4.82
2023-04-23T22:59:48.579Z,4.72
2023-04-23T23:02:15.695Z,5.13
2023-04-23T23:04:42.610Z,5.70
2023-04-23T23:07:09.397Z,6.75
2023-04-23T23:09:36.286Z,7.07
2023-04-23T23:12:04.483Z,5.68
2023-04-23T23:14:31.953Z,5.63
2023-04-23T23:16:59.433Z,7.50
2023-04-23T23:19:30.980Z,6.30
2023-04-23T23:21:57.718Z,6.40
2023-04-23T23:24:24.439Z,6.97
2023-04-23T23:26:51.367Z,5.65
2023-04-23T23:29:18.204Z,6.20
2023-04-23T23:31:45.151Z,7.38
2023-04-23T23:34:12.390Z,6.35
2023-04-23T23:36:39.310Z,5.05
2023-04-23T23:39:07.010Z,5.75
2023-04-23T23:41:33.842Z,5.55
2023-04-23T23:44:00.831Z,4.45
2023-04-23T23:46:27.738Z,4.93
2023-04-23T23:48:54.584Z,3.55
2023-04-23T23:51:21.549Z,3.67
2023-04-23T23:53:48.429Z,4.15
2023-04-23T23:56:15.370Z,4.13
2023-04-23T23:58:42.035Z,4.25
